Airfield :







YOU CAN JOIN US ON...

 
LOGIN :

Register | Disclaimer

   EN    FR    IT 

 









Legend :    VFR   Marginal VFR   IFR   Intensive IFR   Very Intensive IFR
Visi :
Ceiling :
>= 8 km
>= 3000ft
5 to 8 km
1000 to 3000 ft
1500m to 5 km
500 to 1000 ft
800 to 1500m
200 to 500 ft
< 800m
< 200 ft
Symbols :   Thunderstorms  Fog  Heavy snow  Heavy precipitations  Wind > 20 kt







- Airport Elevation : 11 ft


KGHG - Marshfield Municipal George Harlow Field

CURRENT METAR :
  • 251215Z AUTO 35008G14KT 330V030 10SM BKN100 05/M01 A3004 RMK AO2

EXPIRED METARs :
  • 251155Z AUTO VRB06G11KT 10SM BKN110 06/M00 A3003 RMK AO2
  • 251135Z AUTO 30004KT 10SM BKN120 06/M04 A3001 RMK AO2
  • 251115Z AUTO 29003KT 10SM CLR 05/M04 A3000 RMK AO2
  • 251055Z AUTO 00000KT 10SM CLR 04/M03 A3000 RMK AO2
  • 251035Z AUTO 00000KT 10SM CLR 04/M03 A2999 RMK AO2
  • 251015Z AUTO 00000KT 10SM SCT120 05/M04 A2998 RMK AO2
  • 250955Z AUTO 00000KT 10SM SCT120 05/M04 A2997 RMK AO2
  • 250935Z AUTO 00000KT 10SM CLR 06/M04 A2996 RMK AO2
  • 250915Z AUTO 24003KT 10SM CLR 05/M03 A2997 RMK AO2

TAF N/A
KZBW FIR / North America



MET'MAP, your aeronautical weather chart ! - Copyright ORBIFLY December 2007 - Disclaimer

ORBIFLY MET'MAP TEAM :

Programming & Development : Alexandra Zaïnal
Concept & Development : Baudouin d'Aumeries
Co-Development & Prog : Marc-Olivier Méhu
Technical & hardware support : Manuel Goepfert

Contact : metmap@orbifly.com




SOURCES & CREDITS :

   NOAA